sensor_id;sensor_type;location;lat;lon;timestamp;P1;durP1;ratioP1;P2;durP2;ratioP2
23608;SDS011;11982;50.810;4.442;2023-03-18T00:00:01;32.60;;;17.63;;
23608;SDS011;11982;50.810;4.442;2023-03-18T00:02:34;38.58;;;17.25;;
23608;SDS011;11982;50.810;4.442;2023-03-18T00:05:01;36.83;;;17.35;;
23608;SDS011;11982;50.810;4.442;2023-03-18T00:07:28;30.98;;;17.52;;
23608;SDS011;11982;50.810;4.442;2023-03-18T00:09:54;36.58;;;18.45;;
23608;SDS011;11982;50.810;4.442;2023-03-18T00:12:20;37.17;;;19.15;;
23608;SDS011;11982;50.810;4.442;2023-03-18T00:14:46;35.97;;;18.55;;
23608;SDS011;11982;50.810;4.442;2023-03-18T00:17:11;37.38;;;18.42;;
23608;SDS011;11982;50.810;4.442;2023-03-18T00:19:37;32.95;;;18.67;;
23608;SDS011;11982;50.810;4.442;2023-03-18T00:22:03;31.60;;;19.38;;
23608;SDS011;11982;50.810;4.442;2023-03-18T00:24:29;36.67;;;19.52;;
23608;SDS011;11982;50.810;4.442;2023-03-18T00:26:55;38.17;;;19.65;;
23608;SDS011;11982;50.810;4.442;2023-03-18T00:29:21;30.83;;;18.77;;
23608;SDS011;11982;50.810;4.442;2023-03-18T00:31:48;47.15;;;19.75;;
23608;SDS011;11982;50.810;4.442;2023-03-18T00:34:18;37.22;;;20.52;;
23608;SDS011;11982;50.810;4.442;2023-03-18T00:36:45;45.28;;;20.92;;
23608;SDS011;11982;50.810;4.442;2023-03-18T00:39:13;37.78;;;20.90;;
23608;SDS011;11982;50.810;4.442;2023-03-18T00:41:39;41.45;;;21.02;;
23608;SDS011;11982;50.810;4.442;2023-03-18T00:44:04;45.95;;;22.15;;
23608;SDS011;11982;50.810;4.442;2023-03-18T00:46:33;38.63;;;21.58;;
23608;SDS011;11982;50.810;4.442;2023-03-18T00:49:01;38.80;;;22.00;;
23608;SDS011;11982;50.810;4.442;2023-03-18T00:51:30;44.25;;;22.92;;
23608;SDS011;11982;50.810;4.442;2023-03-18T00:53:59;44.65;;;23.05;;
23608;SDS011;11982;50.810;4.442;2023-03-18T00:56:27;48.65;;;24.30;;
23608;SDS011;11982;50.810;4.442;2023-03-18T00:58:54;34.50;;;21.70;;
23608;SDS011;11982;50.810;4.442;2023-03-18T01:01:21;41.90;;;23.52;;
23608;SDS011;11982;50.810;4.442;2023-03-18T01:03:48;40.35;;;23.70;;
23608;SDS011;11982;50.810;4.442;2023-03-18T01:06:18;40.42;;;23.13;;
23608;SDS011;11982;50.810;4.442;2023-03-18T01:08:47;48.90;;;23.45;;
23608;SDS011;11982;50.810;4.442;2023-03-18T01:11:14;42.22;;;23.02;;
23608;SDS011;11982;50.810;4.442;2023-03-18T01:13:40;43.47;;;23.20;;
23608;SDS011;11982;50.810;4.442;2023-03-18T01:16:07;41.20;;;23.33;;
23608;SDS011;11982;50.810;4.442;2023-03-18T01:18:33;46.47;;;24.60;;
23608;SDS011;11982;50.810;4.442;2023-03-18T01:21:00;48.05;;;24.80;;
23608;SDS011;11982;50.810;4.442;2023-03-18T01:23:26;44.42;;;24.85;;
23608;SDS011;11982;50.810;4.442;2023-03-18T01:25:54;44.58;;;25.13;;
23608;SDS011;11982;50.810;4.442;2023-03-18T01:28:20;43.65;;;25.05;;
23608;SDS011;11982;50.810;4.442;2023-03-18T01:30:47;51.75;;;27.90;;
23608;SDS011;11982;50.810;4.442;2023-03-18T01:33:13;49.53;;;26.52;;
23608;SDS011;11982;50.810;4.442;2023-03-18T01:35:39;47.47;;;25.67;;
23608;SDS011;11982;50.810;4.442;2023-03-18T01:38:05;41.25;;;25.08;;
23608;SDS011;11982;50.810;4.442;2023-03-18T01:40:33;52.78;;;25.95;;
23608;SDS011;11982;50.810;4.442;2023-03-18T01:43:11;49.28;;;25.75;;
23608;SDS011;11982;50.810;4.442;2023-03-18T01:45:43;55.35;;;26.25;;
23608;SDS011;11982;50.810;4.442;2023-03-18T01:48:14;45.10;;;24.13;;
23608;SDS011;11982;50.810;4.442;2023-03-18T01:50:41;47.30;;;24.92;;
23608;SDS011;11982;50.810;4.442;2023-03-18T01:53:10;39.97;;;25.25;;
23608;SDS011;11982;50.810;4.442;2023-03-18T01:55:38;40.70;;;25.20;;
23608;SDS011;11982;50.810;4.442;2023-03-18T01:58:18;44.80;;;25.02;;
23608;SDS011;11982;50.810;4.442;2023-03-18T02:00:59;40.78;;;23.70;;
23608;SDS011;11982;50.810;4.442;2023-03-18T02:03:28;45.83;;;24.50;;
23608;SDS011;11982;50.810;4.442;2023-03-18T02:05:55;40.67;;;25.80;;
23608;SDS011;11982;50.810;4.442;2023-03-18T02:08:21;49.08;;;25.35;;
23608;SDS011;11982;50.810;4.442;2023-03-18T02:10:46;45.55;;;25.08;;
23608;SDS011;11982;50.810;4.442;2023-03-18T02:13:13;47.50;;;26.67;;
23608;SDS011;11982;50.810;4.442;2023-03-18T02:15:45;50.75;;;25.15;;
23608;SDS011;11982;50.810;4.442;2023-03-18T02:18:35;50.05;;;26.38;;
23608;SDS011;11982;50.810;4.442;2023-03-18T02:21:18;46.97;;;25.33;;
23608;SDS011;11982;50.810;4.442;2023-03-18T02:29:27;46.50;;;26.75;;
23608;SDS011;11982;50.810;4.442;2023-03-18T02:31:56;45.95;;;25.40;;
23608;SDS011;11982;50.810;4.442;2023-03-18T02:34:25;46.55;;;25.73;;
23608;SDS011;11982;50.810;4.442;2023-03-18T02:36:52;39.03;;;24.02;;
23608;SDS011;11982;50.810;4.442;2023-03-18T02:39:18;47.83;;;25.92;;
23608;SDS011;11982;50.810;4.442;2023-03-18T02:41:45;42.95;;;23.90;;
23608;SDS011;11982;50.810;4.442;2023-03-18T02:44:11;44.35;;;24.70;;
23608;SDS011;11982;50.810;4.442;2023-03-18T02:46:41;41.42;;;22.67;;
23608;SDS011;11982;50.810;4.442;2023-03-18T02:49:13;45.55;;;24.48;;
23608;SDS011;11982;50.810;4.442;2023-03-18T02:51:39;41.40;;;23.58;;
23608;SDS011;11982;50.810;4.442;2023-03-18T02:54:17;41.75;;;23.95;;
23608;SDS011;11982;50.810;4.442;2023-03-18T02:56:45;42.40;;;22.73;;
23608;SDS011;11982;50.810;4.442;2023-03-18T02:59:11;36.92;;;22.60;;
23608;SDS011;11982;50.810;4.442;2023-03-18T03:01:38;47.28;;;24.20;;
23608;SDS011;11982;50.810;4.442;2023-03-18T03:04:05;42.83;;;23.92;;
23608;SDS011;11982;50.810;4.442;2023-03-18T03:06:31;44.03;;;23.65;;
23608;SDS011;11982;50.810;4.442;2023-03-18T03:08:57;41.22;;;22.75;;
23608;SDS011;11982;50.810;4.442;2023-03-18T03:11:25;35.63;;;21.48;;
23608;SDS011;11982;50.810;4.442;2023-03-18T03:13:51;37.55;;;21.20;;
23608;SDS011;11982;50.810;4.442;2023-03-18T03:16:17;40.35;;;20.25;;
23608;SDS011;11982;50.810;4.442;2023-03-18T03:18:44;34.50;;;20.13;;
23608;SDS011;11982;50.810;4.442;2023-03-18T03:21:10;40.05;;;21.73;;
23608;SDS011;11982;50.810;4.442;2023-03-18T03:23:37;38.88;;;22.75;;
23608;SDS011;11982;50.810;4.442;2023-03-18T03:26:03;34.88;;;20.02;;
23608;SDS011;11982;50.810;4.442;2023-03-18T03:28:29;37.30;;;19.52;;
23608;SDS011;11982;50.810;4.442;2023-03-18T03:30:56;38.45;;;22.10;;
23608;SDS011;11982;50.810;4.442;2023-03-18T03:33:23;44.30;;;21.95;;
23608;SDS011;11982;50.810;4.442;2023-03-18T03:35:50;38.55;;;21.58;;
23608;SDS011;11982;50.810;4.442;2023-03-18T03:38:16;44.28;;;21.90;;
23608;SDS011;11982;50.810;4.442;2023-03-18T03:40:43;41.78;;;22.65;;
23608;SDS011;11982;50.810;4.442;2023-03-18T03:43:11;46.63;;;23.08;;
23608;SDS011;11982;50.810;4.442;2023-03-18T03:45:39;36.72;;;21.02;;
23608;SDS011;11982;50.810;4.442;2023-03-18T03:48:06;39.63;;;22.08;;
23608;SDS011;11982;50.810;4.442;2023-03-18T03:50:32;39.58;;;21.77;;
23608;SDS011;11982;50.810;4.442;2023-03-18T03:52:57;36.95;;;20.73;;
23608;SDS011;11982;50.810;4.442;2023-03-18T03:55:23;42.38;;;22.45;;
23608;SDS011;11982;50.810;4.442;2023-03-18T03:57:49;44.60;;;22.10;;
23608;SDS011;11982;50.810;4.442;2023-03-18T04:00:16;39.60;;;21.55;;
23608;SDS011;11982;50.810;4.442;2023-03-18T04:02:44;41.17;;;22.25;;
23608;SDS011;11982;50.810;4.442;2023-03-18T04:05:11;40.55;;;21.88;;
23608;SDS011;11982;50.810;4.442;2023-03-18T04:07:38;43.13;;;22.75;;
23608;SDS011;11982;50.810;4.442;2023-03-18T04:10:05;46.25;;;22.85;;
23608;SDS011;11982;50.810;4.442;2023-03-18T04:12:33;43.42;;;22.23;;
23608;SDS011;11982;50.810;4.442;2023-03-18T04:14:59;39.20;;;21.95;;
23608;SDS011;11982;50.810;4.442;2023-03-18T04:17:25;45.10;;;23.00;;
23608;SDS011;11982;50.810;4.442;2023-03-18T04:19:51;41.80;;;20.73;;
23608;SDS011;11982;50.810;4.442;2023-03-18T04:22:17;33.50;;;20.50;;
23608;SDS011;11982;50.810;4.442;2023-03-18T04:24:43;39.42;;;21.08;;
23608;SDS011;11982;50.810;4.442;2023-03-18T04:27:09;42.83;;;20.67;;
23608;SDS011;11982;50.810;4.442;2023-03-18T04:29:35;42.30;;;21.75;;
23608;SDS011;11982;50.810;4.442;2023-03-18T04:32:01;38.85;;;21.83;;
23608;SDS011;11982;50.810;4.442;2023-03-18T04:34:27;40.38;;;22.45;;
23608;SDS011;11982;50.810;4.442;2023-03-18T04:36:53;44.08;;;22.80;;
23608;SDS011;11982;50.810;4.442;2023-03-18T04:39:20;41.58;;;22.20;;
23608;SDS011;11982;50.810;4.442;2023-03-18T04:41:46;45.15;;;22.98;;
23608;SDS011;11982;50.810;4.442;2023-03-18T04:44:12;48.00;;;24.10;;
23608;SDS011;11982;50.810;4.442;2023-03-18T04:46:38;49.60;;;25.67;;
23608;SDS011;11982;50.810;4.442;2023-03-18T04:49:04;50.10;;;25.70;;
23608;SDS011;11982;50.810;4.442;2023-03-18T04:51:30;55.70;;;27.85;;
23608;SDS011;11982;50.810;4.442;2023-03-18T04:53:56;52.10;;;27.92;;
23608;SDS011;11982;50.810;4.442;2023-03-18T04:56:22;55.47;;;28.05;;
23608;SDS011;11982;50.810;4.442;2023-03-18T04:58:48;53.00;;;28.50;;
23608;SDS011;11982;50.810;4.442;2023-03-18T05:01:14;47.17;;;27.52;;
23608;SDS011;11982;50.810;4.442;2023-03-18T05:03:40;54.70;;;28.65;;
23608;SDS011;11982;50.810;4.442;2023-03-18T05:06:06;58.45;;;28.45;;
23608;SDS011;11982;50.810;4.442;2023-03-18T05:08:33;58.47;;;28.48;;
23608;SDS011;11982;50.810;4.442;2023-03-18T05:10:59;62.88;;;31.08;;
23608;SDS011;11982;50.810;4.442;2023-03-18T05:13:25;66.25;;;31.92;;
23608;SDS011;11982;50.810;4.442;2023-03-18T05:15:50;66.35;;;32.97;;
23608;SDS011;11982;50.810;4.442;2023-03-18T05:18:16;58.83;;;31.17;;
23608;SDS011;11982;50.810;4.442;2023-03-18T05:20:42;66.85;;;32.55;;
23608;SDS011;11982;50.810;4.442;2023-03-18T05:23:08;63.45;;;31.10;;
23608;SDS011;11982;50.810;4.442;2023-03-18T05:25:34;64.20;;;30.42;;
23608;SDS011;11982;50.810;4.442;2023-03-18T05:28:00;63.92;;;30.67;;
23608;SDS011;11982;50.810;4.442;2023-03-18T05:30:26;52.35;;;29.20;;
23608;SDS011;11982;50.810;4.442;2023-03-18T05:32:52;64.70;;;31.27;;
23608;SDS011;11982;50.810;4.442;2023-03-18T05:35:18;57.58;;;30.27;;
23608;SDS011;11982;50.810;4.442;2023-03-18T05:37:44;56.30;;;28.45;;
23608;SDS011;11982;50.810;4.442;2023-03-18T05:40:11;57.92;;;29.05;;
23608;SDS011;11982;50.810;4.442;2023-03-18T05:42:39;59.22;;;28.13;;
23608;SDS011;11982;50.810;4.442;2023-03-18T05:45:05;65.32;;;28.65;;
23608;SDS011;11982;50.810;4.442;2023-03-18T05:47:31;52.67;;;28.30;;
23608;SDS011;11982;50.810;4.442;2023-03-18T05:49:57;51.88;;;27.60;;
23608;SDS011;11982;50.810;4.442;2023-03-18T05:52:23;48.85;;;26.67;;
23608;SDS011;11982;50.810;4.442;2023-03-18T05:54:50;57.45;;;27.55;;
23608;SDS011;11982;50.810;4.442;2023-03-18T05:57:16;52.65;;;27.90;;
23608;SDS011;11982;50.810;4.442;2023-03-18T05:59:41;61.17;;;27.25;;
23608;SDS011;11982;50.810;4.442;2023-03-18T06:02:08;57.08;;;27.85;;
23608;SDS011;11982;50.810;4.442;2023-03-18T06:04:34;51.30;;;27.27;;
23608;SDS011;11982;50.810;4.442;2023-03-18T06:07:01;53.20;;;28.05;;
23608;SDS011;11982;50.810;4.442;2023-03-18T06:09:27;57.78;;;28.33;;
23608;SDS011;11982;50.810;4.442;2023-03-18T06:11:52;54.67;;;27.58;;
23608;SDS011;11982;50.810;4.442;2023-03-18T06:14:18;63.00;;;29.40;;
23608;SDS011;11982;50.810;4.442;2023-03-18T06:16:44;54.85;;;28.40;;
23608;SDS011;11982;50.810;4.442;2023-03-18T06:19:10;55.72;;;28.52;;
23608;SDS011;11982;50.810;4.442;2023-03-18T06:21:37;55.80;;;29.67;;
23608;SDS011;11982;50.810;4.442;2023-03-18T06:24:04;59.40;;;29.48;;
23608;SDS011;11982;50.810;4.442;2023-03-18T06:26:30;54.10;;;29.20;;
23608;SDS011;11982;50.810;4.442;2023-03-18T06:28:56;58.35;;;29.40;;
23608;SDS011;11982;50.810;4.442;2023-03-18T06:31:22;60.50;;;31.13;;
23608;SDS011;11982;50.810;4.442;2023-03-18T06:33:48;61.42;;;30.67;;
23608;SDS011;11982;50.810;4.442;2023-03-18T06:36:14;58.88;;;29.95;;
23608;SDS011;11982;50.810;4.442;2023-03-18T06:38:40;63.90;;;29.83;;
23608;SDS011;11982;50.810;4.442;2023-03-18T06:41:06;56.83;;;30.02;;
23608;SDS011;11982;50.810;4.442;2023-03-18T06:43:33;56.35;;;29.67;;
23608;SDS011;11982;50.810;4.442;2023-03-18T06:45:58;50.08;;;28.65;;
23608;SDS011;11982;50.810;4.442;2023-03-18T06:48:24;58.25;;;29.30;;
23608;SDS011;11982;50.810;4.442;2023-03-18T06:50:50;53.53;;;30.27;;
23608;SDS011;11982;50.810;4.442;2023-03-18T06:53:16;55.65;;;27.60;;
23608;SDS011;11982;50.810;4.442;2023-03-18T06:55:42;49.88;;;27.30;;
23608;SDS011;11982;50.810;4.442;2023-03-18T06:58:08;51.47;;;28.33;;
23608;SDS011;11982;50.810;4.442;2023-03-18T07:00:34;51.60;;;27.30;;
23608;SDS011;11982;50.810;4.442;2023-03-18T07:03:00;50.28;;;26.63;;
23608;SDS011;11982;50.810;4.442;2023-03-18T07:05:27;47.22;;;25.88;;
23608;SDS011;11982;50.810;4.442;2023-03-18T07:07:53;44.63;;;24.88;;
23608;SDS011;11982;50.810;4.442;2023-03-18T07:10:23;46.20;;;25.00;;
23608;SDS011;11982;50.810;4.442;2023-03-18T07:12:51;37.85;;;23.50;;
23608;SDS011;11982;50.810;4.442;2023-03-18T07:15:18;36.72;;;23.15;;
23608;SDS011;11982;50.810;4.442;2023-03-18T07:17:46;46.25;;;23.25;;
23608;SDS011;11982;50.810;4.442;2023-03-18T07:20:12;37.03;;;22.85;;
23608;SDS011;11982;50.810;4.442;2023-03-18T07:22:39;32.88;;;20.58;;
23608;SDS011;11982;50.810;4.442;2023-03-18T07:25:06;33.53;;;20.88;;
23608;SDS011;11982;50.810;4.442;2023-03-18T07:27:33;37.05;;;19.83;;
23608;SDS011;11982;50.810;4.442;2023-03-18T07:29:58;33.75;;;18.77;;
23608;SDS011;11982;50.810;4.442;2023-03-18T07:32:24;36.78;;;18.67;;
23608;SDS011;11982;50.810;4.442;2023-03-18T07:34:50;27.70;;;18.33;;
23608;SDS011;11982;50.810;4.442;2023-03-18T07:37:16;27.13;;;17.67;;
23608;SDS011;11982;50.810;4.442;2023-03-18T07:39:42;29.02;;;17.23;;
23608;SDS011;11982;50.810;4.442;2023-03-18T07:42:08;23.33;;;16.52;;
23608;SDS011;11982;50.810;4.442;2023-03-18T07:44:35;25.15;;;15.85;;
23608;SDS011;11982;50.810;4.442;2023-03-18T07:47:01;27.05;;;16.40;;
23608;SDS011;11982;50.810;4.442;2023-03-18T07:49:28;23.52;;;14.77;;
23608;SDS011;11982;50.810;4.442;2023-03-18T07:51:54;26.80;;;16.70;;
23608;SDS011;11982;50.810;4.442;2023-03-18T07:54:20;25.10;;;15.85;;
23608;SDS011;11982;50.810;4.442;2023-03-18T07:56:47;25.15;;;15.82;;
23608;SDS011;11982;50.810;4.442;2023-03-18T07:59:14;25.90;;;15.80;;
23608;SDS011;11982;50.810;4.442;2023-03-18T08:01:39;26.02;;;16.17;;
23608;SDS011;11982;50.810;4.442;2023-03-18T08:04:05;26.98;;;16.10;;
23608;SDS011;11982;50.810;4.442;2023-03-18T08:06:32;23.83;;;15.30;;
23608;SDS011;11982;50.810;4.442;2023-03-18T08:08:58;23.25;;;14.30;;
23608;SDS011;11982;50.810;4.442;2023-03-18T08:11:24;23.10;;;14.90;;
23608;SDS011;11982;50.810;4.442;2023-03-18T08:13:50;22.58;;;13.77;;
23608;SDS011;11982;50.810;4.442;2023-03-18T08:16:16;24.15;;;13.10;;
23608;SDS011;11982;50.810;4.442;2023-03-18T08:18:42;20.48;;;12.38;;
23608;SDS011;11982;50.810;4.442;2023-03-18T08:21:08;18.77;;;11.52;;
23608;SDS011;11982;50.810;4.442;2023-03-18T08:23:34;21.92;;;12.40;;
23608;SDS011;11982;50.810;4.442;2023-03-18T08:26:00;17.60;;;10.95;;
23608;SDS011;11982;50.810;4.442;2023-03-18T08:28:26;19.35;;;11.20;;
23608;SDS011;11982;50.810;4.442;2023-03-18T08:30:53;20.67;;;10.88;;
23608;SDS011;11982;50.810;4.442;2023-03-18T08:33:20;17.42;;;10.02;;
23608;SDS011;11982;50.810;4.442;2023-03-18T08:35:47;18.88;;;10.60;;
23608;SDS011;11982;50.810;4.442;2023-03-18T08:38:13;18.75;;;10.60;;
23608;SDS011;11982;50.810;4.442;2023-03-18T08:40:39;13.73;;;9.38;;
23608;SDS011;11982;50.810;4.442;2023-03-18T08:43:06;16.17;;;9.45;;
23608;SDS011;11982;50.810;4.442;2023-03-18T08:45:32;12.18;;;8.80;;
23608;SDS011;11982;50.810;4.442;2023-03-18T08:47:59;12.70;;;8.70;;
23608;SDS011;11982;50.810;4.442;2023-03-18T08:50:25;16.15;;;9.27;;
23608;SDS011;11982;50.810;4.442;2023-03-18T08:52:54;16.10;;;9.00;;
23608;SDS011;11982;50.810;4.442;2023-03-18T08:55:22;11.50;;;8.38;;
23608;SDS011;11982;50.810;4.442;2023-03-18T08:57:52;13.73;;;8.20;;
23608;SDS011;11982;50.810;4.442;2023-03-18T09:00:18;15.77;;;8.60;;
23608;SDS011;11982;50.810;4.442;2023-03-18T09:02:45;13.05;;;9.10;;
23608;SDS011;11982;50.810;4.442;2023-03-18T09:05:11;12.65;;;7.53;;
23608;SDS011;11982;50.810;4.442;2023-03-18T09:07:37;14.13;;;7.55;;
23608;SDS011;11982;50.810;4.442;2023-03-18T09:10:03;11.23;;;7.45;;
23608;SDS011;11982;50.810;4.442;2023-03-18T09:12:30;11.60;;;7.28;;
23608;SDS011;11982;50.810;4.442;2023-03-18T09:14:55;9.20;;;6.25;;
23608;SDS011;11982;50.810;4.442;2023-03-18T09:17:21;11.30;;;6.43;;
23608;SDS011;11982;50.810;4.442;2023-03-18T09:19:47;11.30;;;6.65;;
23608;SDS011;11982;50.810;4.442;2023-03-18T09:22:13;8.18;;;5.40;;
23608;SDS011;11982;50.810;4.442;2023-03-18T09:24:38;9.63;;;5.10;;
23608;SDS011;11982;50.810;4.442;2023-03-18T09:27:05;11.25;;;5.35;;
23608;SDS011;11982;50.810;4.442;2023-03-18T09:29:31;9.98;;;5.78;;
23608;SDS011;11982;50.810;4.442;2023-03-18T09:31:57;8.68;;;5.03;;
23608;SDS011;11982;50.810;4.442;2023-03-18T09:34:23;8.18;;;5.53;;
23608;SDS011;11982;50.810;4.442;2023-03-18T09:36:48;7.32;;;4.95;;
23608;SDS011;11982;50.810;4.442;2023-03-18T09:39:17;8.20;;;4.68;;
23608;SDS011;11982;50.810;4.442;2023-03-18T09:41:51;6.05;;;4.72;;
23608;SDS011;11982;50.810;4.442;2023-03-18T09:44:34;8.38;;;4.63;;
23608;SDS011;11982;50.810;4.442;2023-03-18T09:52:47;10.13;;;4.50;;
23608;SDS011;11982;50.810;4.442;2023-03-18T09:58:24;9.50;;;4.28;;
23608;SDS011;11982;50.810;4.442;2023-03-18T10:01:02;7.55;;;4.28;;
23608;SDS011;11982;50.810;4.442;2023-03-18T10:03:44;6.68;;;4.28;;
23608;SDS011;11982;50.810;4.442;2023-03-18T10:11:25;7.60;;;4.20;;
23608;SDS011;11982;50.810;4.442;2023-03-18T10:14:20;7.22;;;4.95;;
23608;SDS011;11982;50.810;4.442;2023-03-18T10:17:04;8.57;;;4.93;;
23608;SDS011;11982;50.810;4.442;2023-03-18T10:19:37;8.43;;;4.70;;
23608;SDS011;11982;50.810;4.442;2023-03-18T10:27:48;10.73;;;4.65;;
23608;SDS011;11982;50.810;4.442;2023-03-18T10:36:03;9.85;;;5.22;;
23608;SDS011;11982;50.810;4.442;2023-03-18T10:38:31;10.73;;;5.10;;
23608;SDS011;11982;50.810;4.442;2023-03-18T10:41:01;8.85;;;5.20;;
23608;SDS011;11982;50.810;4.442;2023-03-18T10:43:44;9.18;;;4.63;;
23608;SDS011;11982;50.810;4.442;2023-03-18T10:46:14;10.68;;;4.53;;
23608;SDS011;11982;50.810;4.442;2023-03-18T10:48:41;10.32;;;4.60;;
23608;SDS011;11982;50.810;4.442;2023-03-18T10:54:20;5.85;;;4.10;;
23608;SDS011;11982;50.810;4.442;2023-03-18T10:56:48;9.68;;;4.32;;
23608;SDS011;11982;50.810;4.442;2023-03-18T10:59:15;10.32;;;4.95;;
23608;SDS011;11982;50.810;4.442;2023-03-18T11:01:47;8.90;;;3.90;;
23608;SDS011;11982;50.810;4.442;2023-03-18T11:04:19;4.38;;;3.55;;
23608;SDS011;11982;50.810;4.442;2023-03-18T11:06:51;6.60;;;3.83;;
23608;SDS011;11982;50.810;4.442;2023-03-18T11:09:32;7.07;;;3.60;;
23608;SDS011;11982;50.810;4.442;2023-03-18T11:12:13;6.22;;;3.60;;
23608;SDS011;11982;50.810;4.442;2023-03-18T11:14:46;5.65;;;3.45;;
23608;SDS011;11982;50.810;4.442;2023-03-18T11:17:26;5.65;;;4.05;;
23608;SDS011;11982;50.810;4.442;2023-03-18T11:22:32;7.03;;;3.35;;
23608;SDS011;11982;50.810;4.442;2023-03-18T11:30:12;4.82;;;2.58;;
23608;SDS011;11982;50.810;4.442;2023-03-18T11:32:51;4.55;;;2.58;;
23608;SDS011;11982;50.810;4.442;2023-03-18T11:35:21;5.57;;;2.78;;
23608;SDS011;11982;50.810;4.442;2023-03-18T11:37:56;6.47;;;3.33;;
23608;SDS011;11982;50.810;4.442;2023-03-18T11:40:29;8.05;;;2.83;;
23608;SDS011;11982;50.810;4.442;2023-03-18T11:42:57;5.20;;;2.53;;
23608;SDS011;11982;50.810;4.442;2023-03-18T11:45:44;4.13;;;2.20;;
23608;SDS011;11982;50.810;4.442;2023-03-18T11:48:27;4.75;;;2.30;;
23608;SDS011;11982;50.810;4.442;2023-03-18T11:51:01;6.75;;;2.42;;
23608;SDS011;11982;50.810;4.442;2023-03-18T12:10:18;4.93;;;2.17;;
23608;SDS011;11982;50.810;4.442;2023-03-18T12:21:46;4.35;;;1.80;;
23608;SDS011;11982;50.810;4.442;2023-03-18T12:26:54;1.90;;;1.70;;
23608;SDS011;11982;50.810;4.442;2023-03-18T12:29:44;6.03;;;2.03;;
23608;SDS011;11982;50.810;4.442;2023-03-18T12:32:48;6.72;;;2.15;;
23608;SDS011;11982;50.810;4.442;2023-03-18T12:38:20;4.05;;;1.88;;
23608;SDS011;11982;50.810;4.442;2023-03-18T12:41:12;6.20;;;1.90;;
23608;SDS011;11982;50.810;4.442;2023-03-18T12:49:03;3.58;;;1.70;;
23608;SDS011;11982;50.810;4.442;2023-03-18T12:51:55;4.63;;;2.45;;
23608;SDS011;11982;50.810;4.442;2023-03-18T12:54:32;4.65;;;2.58;;
23608;SDS011;11982;50.810;4.442;2023-03-18T13:02:45;7.38;;;1.90;;
23608;SDS011;11982;50.810;4.442;2023-03-18T13:05:47;4.97;;;1.65;;
23608;SDS011;11982;50.810;4.442;2023-03-18T13:13:46;7.53;;;2.13;;
23608;SDS011;11982;50.810;4.442;2023-03-18T13:16:15;7.07;;;1.90;;
23608;SDS011;11982;50.810;4.442;2023-03-18T13:18:46;4.53;;;1.83;;
23608;SDS011;11982;50.810;4.442;2023-03-18T13:21:18;7.10;;;1.92;;
23608;SDS011;11982;50.810;4.442;2023-03-18T13:40:51;6.95;;;1.98;;
23608;SDS011;11982;50.810;4.442;2023-03-18T13:43:40;6.63;;;1.60;;
23608;SDS011;11982;50.810;4.442;2023-03-18T13:46:31;4.60;;;1.90;;
23608;SDS011;11982;50.810;4.442;2023-03-18T13:48:59;8.35;;;2.03;;
23608;SDS011;11982;50.810;4.442;2023-03-18T13:53:55;4.32;;;1.65;;
23608;SDS011;11982;50.810;4.442;2023-03-18T13:56:43;9.10;;;1.90;;
23608;SDS011;11982;50.810;4.442;2023-03-18T13:59:41;7.72;;;2.08;;
23608;SDS011;11982;50.810;4.442;2023-03-18T14:05:01;6.90;;;1.70;;
23608;SDS011;11982;50.810;4.442;2023-03-18T14:07:47;6.78;;;2.15;;
23608;SDS011;11982;50.810;4.442;2023-03-18T14:10:16;5.43;;;1.73;;
23608;SDS011;11982;50.810;4.442;2023-03-18T14:12:44;5.75;;;1.70;;
23608;SDS011;11982;50.810;4.442;2023-03-18T14:17:43;6.15;;;1.27;;
23608;SDS011;11982;50.810;4.442;2023-03-18T14:20:40;5.65;;;1.70;;
23608;SDS011;11982;50.810;4.442;2023-03-18T14:26:01;6.72;;;1.70;;
23608;SDS011;11982;50.810;4.442;2023-03-18T14:28:39;6.78;;;1.60;;
23608;SDS011;11982;50.810;4.442;2023-03-18T14:33:46;4.88;;;1.55;;
23608;SDS011;11982;50.810;4.442;2023-03-18T14:36:25;3.80;;;1.48;;
23608;SDS011;11982;50.810;4.442;2023-03-18T14:39:00;4.50;;;1.55;;
23608;SDS011;11982;50.810;4.442;2023-03-18T14:41:28;9.38;;;1.75;;
23608;SDS011;11982;50.810;4.442;2023-03-18T14:46:28;5.68;;;1.38;;
23608;SDS011;11982;50.810;4.442;2023-03-18T14:48:58;9.55;;;2.00;;
23608;SDS011;11982;50.810;4.442;2023-03-18T14:51:25;8.13;;;1.83;;
23608;SDS011;11982;50.810;4.442;2023-03-18T14:54:00;4.47;;;1.38;;
23608;SDS011;11982;50.810;4.442;2023-03-18T14:56:33;6.82;;;1.88;;
23608;SDS011;11982;50.810;4.442;2023-03-18T14:59:02;5.65;;;1.98;;
23608;SDS011;11982;50.810;4.442;2023-03-18T15:01:39;2.25;;;1.17;;
23608;SDS011;11982;50.810;4.442;2023-03-18T15:04:10;6.20;;;1.83;;
23608;SDS011;11982;50.810;4.442;2023-03-18T15:06:42;6.85;;;1.75;;
23608;SDS011;11982;50.810;4.442;2023-03-18T15:09:09;6.18;;;1.58;;
23608;SDS011;11982;50.810;4.442;2023-03-18T15:11:43;5.47;;;1.60;;
23608;SDS011;11982;50.810;4.442;2023-03-18T15:14:24;5.05;;;1.65;;
23608;SDS011;11982;50.810;4.442;2023-03-18T15:16:51;7.13;;;1.48;;
23608;SDS011;11982;50.810;4.442;2023-03-18T15:19:19;7.07;;;1.45;;
23608;SDS011;11982;50.810;4.442;2023-03-18T15:21:46;4.70;;;1.63;;
23608;SDS011;11982;50.810;4.442;2023-03-18T15:24:17;6.07;;;1.48;;
23608;SDS011;11982;50.810;4.442;2023-03-18T15:27:11;6.25;;;1.40;;
23608;SDS011;11982;50.810;4.442;2023-03-18T15:29:54;6.05;;;1.75;;
23608;SDS011;11982;50.810;4.442;2023-03-18T15:32:28;4.40;;;1.52;;
23608;SDS011;11982;50.810;4.442;2023-03-18T15:37:42;6.32;;;1.95;;
23608;SDS011;11982;50.810;4.442;2023-03-18T15:40:29;5.47;;;1.65;;
23608;SDS011;11982;50.810;4.442;2023-03-18T15:43:42;6.55;;;2.05;;
23608;SDS011;11982;50.810;4.442;2023-03-18T15:45:54;5.70;;;1.60;;
23608;SDS011;11982;50.810;4.442;2023-03-18T15:48:25;7.28;;;1.77;;
23608;SDS011;11982;50.810;4.442;2023-03-18T15:53:51;6.97;;;3.00;;
23608;SDS011;11982;50.810;4.442;2023-03-18T15:56:23;6.85;;;1.90;;
23608;SDS011;11982;50.810;4.442;2023-03-18T15:58:56;5.43;;;1.88;;
23608;SDS011;11982;50.810;4.442;2023-03-18T16:01:36;6.07;;;2.03;;
23608;SDS011;11982;50.810;4.442;2023-03-18T16:04:04;7.43;;;1.90;;
23608;SDS011;11982;50.810;4.442;2023-03-18T16:06:34;6.47;;;1.80;;
23608;SDS011;11982;50.810;4.442;2023-03-18T16:09:00;5.15;;;1.70;;
23608;SDS011;11982;50.810;4.442;2023-03-18T16:11:37;4.60;;;1.48;;
23608;SDS011;11982;50.810;4.442;2023-03-18T16:14:03;9.43;;;1.83;;
23608;SDS011;11982;50.810;4.442;2023-03-18T16:16:30;6.40;;;1.80;;
23608;SDS011;11982;50.810;4.442;2023-03-18T16:18:57;5.15;;;1.83;;
23608;SDS011;11982;50.810;4.442;2023-03-18T16:21:23;6.53;;;2.13;;
23608;SDS011;11982;50.810;4.442;2023-03-18T16:23:49;5.30;;;2.00;;
23608;SDS011;11982;50.810;4.442;2023-03-18T16:26:15;7.72;;;2.17;;
23608;SDS011;11982;50.810;4.442;2023-03-18T16:28:42;6.90;;;2.20;;
23608;SDS011;11982;50.810;4.442;2023-03-18T16:31:10;7.15;;;2.05;;
23608;SDS011;11982;50.810;4.442;2023-03-18T16:33:36;9.02;;;2.10;;
23608;SDS011;11982;50.810;4.442;2023-03-18T16:36:04;8.93;;;1.95;;
23608;SDS011;11982;50.810;4.442;2023-03-18T16:38:31;6.03;;;1.92;;
23608;SDS011;11982;50.810;4.442;2023-03-18T16:40:58;6.30;;;2.00;;
23608;SDS011;11982;50.810;4.442;2023-03-18T16:43:25;6.78;;;2.03;;
23608;SDS011;11982;50.810;4.442;2023-03-18T16:45:53;7.55;;;1.83;;
23608;SDS011;11982;50.810;4.442;2023-03-18T16:48:23;6.30;;;2.00;;
23608;SDS011;11982;50.810;4.442;2023-03-18T16:50:51;5.55;;;2.10;;